Terminal Aerodrome Forecast
Issued by NWS Springfield, MO

Home | Current Version | Previous Version | Text Only | Print | Product List | Glossary On
Versions: 1 2 3 4 5 6 7 8 9 10 11 12 13 14 15 16 17 18 19
394
FTUS43 KSGF 260704 AAA
TAFSGF
TAF AMD
KSGF 260704Z 2607/2706 04004KT P6SM VCSH OVC090
     FM261200 09004KT P6SM VCSH BKN050
     FM261800 VRB06KT P6SM BKN100
     FM270000 VRB04KT P6SM VCSH BKN070=

USA.gov is the U.S. government's official web portal to all federal, state and local government web resources and services.